Lachine, Michigan
Current Conditions -  °F | °C
As of 4:05 AM on Friday 28 Nov 2014 (Local Time) from KAPN Reporting Station
Overcast Overcast  
Wind Chill:   Ceiling: 3300
Heat Index: 16°   Visibility: 10mi
Dew Point: 11°   Wind: 7mph
Humidity: 81%   Direction: 260°W
Pressure: 30.28"   Gusts: NA
Location:  45.08°N, 83.72°W
Report Text: KAPN 280905Z AUTO 26006KT 10SM SCT022 OVC033 M09/M12 A3028 RMK AO2 T10891117
Loading
Personal Weather Stations






























Interactive Weather Map New forecast layout! Learn more

10-Day Weather Forecast

Advertisements
Track Severe Weather on mobile